createdAt,value
2018-01-31T01:53:43.038Z,71.57
2018-01-31T01:56:10.674Z,72.26
2018-01-31T01:58:38.629Z,71.58
2018-01-31T02:01:06.218Z,71.47
2018-01-31T02:03:33.821Z,70.76
2018-01-31T02:06:01.445Z,70.93
2018-01-31T02:08:29.028Z,70.70
2018-01-31T02:10:56.644Z,70.99
2018-01-31T02:13:24.244Z,70.52
2018-01-31T02:15:52.154Z,70.53
2018-01-31T02:18:19.752Z,70.61
2018-01-31T02:20:47.331Z,70.68
2018-01-31T02:23:14.943Z,70.93
2018-01-31T02:25:42.615Z,71.36
2018-01-31T02:28:10.236Z,71.38
2018-01-31T02:30:37.818Z,71.29
2018-01-31T02:33:05.576Z,71.37
2018-01-31T02:35:33.189Z,71.34
2018-01-31T02:38:00.775Z,71.37
2018-01-31T02:40:28.385Z,70.89
2018-01-31T02:42:55.982Z,71.03
2018-01-31T02:45:23.690Z,70.62
2018-01-31T02:47:51.294Z,70.60
2018-01-31T02:50:19.111Z,71.09
2018-01-31T02:52:46.712Z,71.10
2018-01-31T02:55:14.372Z,70.81
2018-01-31T02:57:42.001Z,70.95
2018-01-31T03:00:09.593Z,71.17
2018-01-31T03:02:37.196Z,71.18
2018-01-31T03:05:04.792Z,70.34
2018-01-31T03:07:32.584Z,70.83
2018-01-31T03:10:00.179Z,70.76
2018-01-31T03:12:27.776Z,70.29
2018-01-31T03:14:55.389Z,69.64
2018-01-31T03:17:22.973Z,69.96
2018-01-31T03:19:50.580Z,70.27
2018-01-31T03:22:18.170Z,70.22
2018-01-31T03:24:45.897Z,70.60
2018-01-31T03:27:13.530Z,70.78
2018-01-31T03:29:41.114Z,69.83
2018-01-31T03:32:08.723Z,69.87
2018-01-31T03:34:36.329Z,70.07
2018-01-31T03:37:03.931Z,70.34
2018-01-31T03:39:31.540Z,70.33
2018-01-31T03:41:59.188Z,70.41
2018-01-31T03:44:26.784Z,70.34
2018-01-31T03:46:54.384Z,70.10
2018-01-31T03:49:21.996Z,69.85
2018-01-31T03:51:49.646Z,69.64
2018-01-31T03:54:17.719Z,70.08
2018-01-31T03:56:45.319Z,69.89
2018-01-31T03:59:12.921Z,69.95
2018-01-31T04:01:40.543Z,69.25
2018-01-31T04:04:08.136Z,68.98
2018-01-31T04:06:35.747Z,69.36
2018-01-31T04:09:03.350Z,69.50
2018-01-31T04:11:30.972Z,69.19
2018-01-31T04:13:58.583Z,69.88
2018-01-31T04:16:26.173Z,70.13
2018-01-31T04:18:53.786Z,69.44
2018-01-31T04:21:21.388Z,69.17
2018-01-31T04:23:49.021Z,68.67
2018-01-31T04:26:16.609Z,69.28
2018-01-31T04:28:45.311Z,68.99
2018-01-31T04:31:12.888Z,69.83
2018-01-31T04:33:40.475Z,69.53
2018-01-31T04:36:08.094Z,69.62
2018-01-31T04:38:35.700Z,69.79
2018-01-31T04:41:03.307Z,69.34
2018-01-31T04:43:30.902Z,69.17
2018-01-31T04:45:58.724Z,68.97
2018-01-31T04:48:26.307Z,68.75
2018-01-31T04:50:53.896Z,68.83
2018-01-31T04:53:21.507Z,68.88
2018-01-31T04:55:49.097Z,68.93
2018-01-31T04:58:16.699Z,68.92
2018-01-31T05:00:44.291Z,68.87
2018-01-31T05:03:11.873Z,68.66
2018-01-31T05:05:39.490Z,68.89
2018-01-31T05:08:07.074Z,69.33
2018-01-31T05:10:34.937Z,68.46
2018-01-31T05:13:02.540Z,68.06
2018-01-31T05:15:30.131Z,67.80
2018-01-31T05:17:57.759Z,68.39
2018-01-31T05:20:25.348Z,68.53
2018-01-31T05:22:52.972Z,67.91
2018-01-31T05:25:20.563Z,67.26
2018-01-31T05:27:48.460Z,67.15
2018-01-31T05:30:16.065Z,66.75
2018-01-31T05:32:43.687Z,67.58
2018-01-31T05:35:11.303Z,67.47
2018-01-31T05:37:39.222Z,67.16
2018-01-31T05:40:06.843Z,67.04
2018-01-31T05:42:34.425Z,67.32
2018-01-31T05:45:02.076Z,67.54
2018-01-31T05:47:29.674Z,68.14
2018-01-31T05:49:57.291Z,67.69
2018-01-31T05:52:24.913Z,67.03
2018-01-31T05:54:52.500Z,67.97
2018-01-31T05:57:20.109Z,67.97
2018-01-31T05:59:47.701Z,67.97
2018-01-31T06:02:15.628Z,68.14
2018-01-31T06:04:43.250Z,68.11
2018-01-31T06:07:10.848Z,67.64
2018-01-31T06:09:38.454Z,67.97
2018-01-31T06:12:06.073Z,67.45
2018-01-31T06:14:33.691Z,67.36
2018-01-31T06:17:01.290Z,67.99
2018-01-31T06:19:29.063Z,67.36
2018-01-31T06:21:56.668Z,67.67
2018-01-31T06:24:24.270Z,68.03
2018-01-31T06:26:51.888Z,67.39
2018-01-31T06:29:19.483Z,67.35
2018-01-31T06:31:47.089Z,67.49
2018-01-31T06:34:14.672Z,67.65
2018-01-31T06:36:42.304Z,67.20
2018-01-31T06:39:09.900Z,67.14
2018-01-31T06:41:37.490Z,66.85
2018-01-31T06:44:05.139Z,66.32
2018-01-31T06:46:32.737Z,66.00
2018-01-31T06:49:00.509Z,66.28
2018-01-31T06:51:28.180Z,65.95
2018-01-31T06:53:55.842Z,66.51
2018-01-31T06:56:23.443Z,67.00
2018-01-31T06:58:51.033Z,66.75
2018-01-31T07:01:18.641Z,66.89
2018-01-31T07:03:46.235Z,66.79
2018-01-31T07:06:13.850Z,66.53
2018-01-31T07:08:41.894Z,66.35
2018-01-31T07:11:09.541Z,66.31
2018-01-31T07:13:37.145Z,66.40
2018-01-31T07:16:04.743Z,66.21
2018-01-31T07:18:32.384Z,65.57
2018-01-31T07:21:00.001Z,65.90
2018-01-31T07:23:27.625Z,65.67
2018-01-31T07:25:55.211Z,65.00
2018-01-31T07:28:23.127Z,65.39
2018-01-31T07:30:50.732Z,65.70
2018-01-31T07:33:18.335Z,65.64
2018-01-31T07:35:45.957Z,65.45
2018-01-31T07:38:13.634Z,64.63
2018-01-31T07:40:41.250Z,64.56
2018-01-31T07:43:08.847Z,64.27
2018-01-31T07:45:36.724Z,64.42
2018-01-31T07:48:04.312Z,64.35
2018-01-31T07:50:31.903Z,64.20
2018-01-31T07:52:59.515Z,64.10
2018-01-31T07:55:27.114Z,63.92
2018-01-31T07:57:54.723Z,63.74
2018-01-31T08:00:22.337Z,63.20
2018-01-31T08:02:50.367Z,63.05
2018-01-31T08:05:18.610Z,62.80
2018-01-31T08:07:46.212Z,63.03
2018-01-31T08:10:13.836Z,63.20
2018-01-31T08:12:41.415Z,63.27
2018-01-31T08:15:09.043Z,63.06
2018-01-31T08:17:36.647Z,62.79
2018-01-31T08:20:04.729Z,62.57
2018-01-31T08:22:32.312Z,62.83
2018-01-31T08:24:59.916Z,63.79
2018-01-31T08:27:27.534Z,63.48
2018-01-31T08:29:55.120Z,64.36
2018-01-31T08:32:22.740Z,64.62
2018-01-31T08:34:50.346Z,64.98
2018-01-31T08:37:18.144Z,65.45
2018-01-31T08:39:45.775Z,65.83
2018-01-31T08:42:13.364Z,65.71
2018-01-31T08:44:41.019Z,65.59
2018-01-31T08:47:08.639Z,65.06
2018-01-31T08:49:36.294Z,65.12
2018-01-31T08:52:03.906Z,64.58
2018-01-31T08:54:31.576Z,64.32
2018-01-31T08:56:59.256Z,64.39
2018-01-31T08:59:26.865Z,65.06
2018-01-31T09:01:54.479Z,64.67
2018-01-31T09:04:22.090Z,65.63
2018-01-31T09:06:49.776Z,66.10
2018-01-31T09:09:17.355Z,66.37
2018-01-31T09:11:45.049Z,66.94
2018-01-31T09:14:12.662Z,67.07
2018-01-31T09:16:40.456Z,67.79
2018-01-31T09:19:08.066Z,68.38
2018-01-31T09:21:35.647Z,68.48
2018-01-31T09:24:03.266Z,68.83
2018-01-31T09:26:33.125Z,67.52
2018-01-31T09:29:00.980Z,68.00
2018-01-31T09:31:28.585Z,67.73
2018-01-31T09:33:56.166Z,67.70
2018-01-31T09:36:23.816Z,67.16
2018-01-31T09:38:51.399Z,66.65
2018-01-31T09:41:19.005Z,66.37
2018-01-31T09:43:46.604Z,65.94
2018-01-31T09:46:14.243Z,65.51
2018-01-31T09:48:41.827Z,65.22
2018-01-31T09:51:09.463Z,65.16
2018-01-31T09:53:37.067Z,64.64
2018-01-31T09:56:04.641Z,65.53
2018-01-31T09:58:32.247Z,64.38
2018-01-31T10:00:59.826Z,64.70
2018-01-31T10:03:27.647Z,64.81
2018-01-31T10:05:55.242Z,64.52
2018-01-31T10:08:22.839Z,64.45
2018-01-31T10:10:50.447Z,64.90
2018-01-31T10:13:18.328Z,64.41
2018-01-31T10:15:45.924Z,64.21
2018-01-31T10:18:13.629Z,63.88
2018-01-31T10:20:41.490Z,63.25
2018-01-31T10:23:09.088Z,63.47
2018-01-31T10:25:36.721Z,64.00
2018-01-31T10:28:04.340Z,63.20
2018-01-31T10:30:32.126Z,62.68
2018-01-31T10:32:59.828Z,62.88
2018-01-31T10:35:27.543Z,62.85
2018-01-31T10:37:55.428Z,62.90
2018-01-31T10:40:23.051Z,62.35
2018-01-31T10:42:50.839Z,62.21
2018-01-31T10:45:18.702Z,62.17
2018-01-31T10:47:46.480Z,61.79
2018-01-31T10:50:14.220Z,61.63
2018-01-31T10:52:41.830Z,61.16
2018-01-31T10:57:37.127Z,60.90
2018-01-31T11:00:04.708Z,60.06
2018-01-31T11:02:32.426Z,59.83
2018-01-31T11:05:00.027Z,60.39
2018-01-31T11:07:27.644Z,60.66
2018-01-31T11:09:55.247Z,60.11
2018-01-31T11:12:23.317Z,60.00
2018-01-31T11:14:50.993Z,60.25
2018-01-31T11:17:18.559Z,60.18
2018-01-31T11:19:46.171Z,60.84
2018-01-31T11:22:13.766Z,60.59
2018-01-31T11:24:41.409Z,60.70
2018-01-31T11:27:09.532Z,61.21
2018-01-31T11:29:37.154Z,61.08
2018-01-31T11:32:04.756Z,60.56
2018-01-31T11:34:32.347Z,60.14
2018-01-31T11:37:00.093Z,61.00
2018-01-31T11:39:27.679Z,59.73
2018-01-31T11:41:55.287Z,60.01
2018-01-31T11:44:22.871Z,60.20
2018-01-31T11:46:50.684Z,60.01
2018-01-31T11:49:18.291Z,60.22
2018-01-31T11:51:45.883Z,59.80
2018-01-31T11:54:13.559Z,60.21
2018-01-31T11:56:41.219Z,60.63
2018-01-31T11:59:09.020Z,60.11
2018-01-31T12:01:36.634Z,60.55
2018-01-31T12:04:04.220Z,59.96
2018-01-31T12:06:31.853Z,59.42
2018-01-31T12:08:59.495Z,59.53
2018-01-31T12:11:27.423Z,59.29
2018-01-31T12:14:17.371Z,59.26
2018-01-31T12:16:56.811Z,60.01
2018-01-31T12:19:36.095Z,59.40
2018-01-31T12:25:18.365Z,60.25
2018-01-31T12:27:57.668Z,60.51
2018-01-31T12:30:36.979Z,60.42
2018-01-31T12:33:16.419Z,60.83
2018-01-31T12:35:55.776Z,60.67
2018-01-31T12:38:35.156Z,61.13
2018-01-31T12:41:02.211Z,60.67
2018-01-31T12:43:29.483Z,61.56
2018-01-31T12:46:08.848Z,61.45
2018-01-31T12:48:48.307Z,61.97
2018-01-31T12:54:31.034Z,62.81
2018-01-31T12:57:10.529Z,63.45
2018-01-31T12:59:49.941Z,64.60
2018-01-31T13:02:23.347Z,64.05
2018-01-31T13:05:02.765Z,64.56
2018-01-31T13:07:42.057Z,64.81
2018-01-31T13:10:21.507Z,69.17
2018-01-31T13:13:00.931Z,68.92
2018-01-31T13:19:02.478Z,70.09
2018-01-31T13:21:41.893Z,70.61
2018-01-31T13:24:21.272Z,70.30
2018-01-31T13:27:00.580Z,71.52
2018-01-31T13:29:28.263Z,72.00
2018-01-31T13:32:07.579Z,72.34
2018-01-31T13:34:46.981Z,72.52
2018-01-31T13:37:32.115Z,72.58
2018-01-31T13:43:09.300Z,72.20
2018-01-31T13:45:48.638Z,71.79
2018-01-31T13:48:28.115Z,71.83
2018-01-31T13:51:07.628Z,72.37
2018-01-31T13:53:47.096Z,71.71
2018-01-31T13:56:26.476Z,72.04
2018-01-31T13:59:05.922Z,72.14
2018-01-31T14:01:45.279Z,70.76
2018-01-31T14:04:24.743Z,70.95
2018-01-31T14:10:12.272Z,68.48
2018-01-31T14:12:51.665Z,69.56
2018-01-31T14:15:31.115Z,69.41
2018-01-31T14:18:10.453Z,69.35
2018-01-31T14:20:49.839Z,68.88
2018-01-31T14:23:29.224Z,68.12
2018-01-31T14:26:08.636Z,68.32
2018-01-31T14:28:47.907Z,68.33
2018-01-31T14:31:27.202Z,68.84
2018-01-31T14:37:00.309Z,70.30
2018-01-31T14:39:27.363Z,70.76
2018-01-31T14:41:54.896Z,70.58
2018-01-31T14:44:21.948Z,71.00
2018-01-31T14:46:49.006Z,70.98
2018-01-31T14:49:16.081Z,70.93
2018-01-31T14:51:43.345Z,70.60
2018-01-31T14:54:10.439Z,70.50
2018-01-31T14:56:37.499Z,70.87
2018-01-31T14:59:05.232Z,70.98
2018-01-31T15:01:32.283Z,71.28
2018-01-31T15:03:59.350Z,71.05
2018-01-31T15:06:26.421Z,71.06
2018-01-31T15:08:53.471Z,71.32
2018-01-31T15:11:20.546Z,71.21
2018-01-31T15:13:47.628Z,71.35
2018-01-31T15:16:14.731Z,70.50
2018-01-31T15:18:41.784Z,70.86
2018-01-31T15:21:08.836Z,70.11
2018-01-31T15:23:35.908Z,70.70
2018-01-31T15:26:02.964Z,70.25
2018-01-31T15:28:30.044Z,69.60
2018-01-31T15:30:57.095Z,69.64
2018-01-31T15:33:24.321Z,69.58
2018-01-31T15:35:51.384Z,69.42
2018-01-31T15:38:20.079Z,69.59
2018-01-31T15:40:47.371Z,69.67
2018-01-31T15:43:14.512Z,68.63
2018-01-31T15:45:41.634Z,69.05
2018-01-31T15:48:08.716Z,68.91
2018-01-31T15:50:36.039Z,68.16
2018-01-31T15:53:06.243Z,68.30
2018-01-31T15:55:33.312Z,68.34
2018-01-31T15:58:00.401Z,67.95
2018-01-31T16:00:27.457Z,67.93
2018-01-31T16:02:54.524Z,68.21
2018-01-31T16:05:21.576Z,68.25
2018-01-31T16:07:48.813Z,67.67
2018-01-31T16:10:15.867Z,68.58
2018-01-31T16:12:42.987Z,68.04
2018-01-31T16:15:10.025Z,67.99
2018-01-31T16:17:37.675Z,67.95
2018-01-31T16:20:16.940Z,68.15
2018-01-31T16:22:44.531Z,67.87
2018-01-31T16:25:12.130Z,68.25
2018-01-31T16:27:51.527Z,68.26
2018-01-31T16:30:23.115Z,68.29
2018-01-31T16:35:53.181Z,68.27
2018-01-31T16:38:20.762Z,68.72
2018-01-31T16:40:48.558Z,68.72
2018-01-31T16:43:16.195Z,68.57
2018-01-31T16:45:43.796Z,68.26
2018-01-31T16:48:11.406Z,68.51
2018-01-31T16:50:38.996Z,68.57
2018-01-31T16:53:06.615Z,68.49
2018-01-31T16:55:34.257Z,68.53
2018-01-31T16:58:01.908Z,68.22
2018-01-31T17:00:29.519Z,68.39
2018-01-31T17:02:57.303Z,68.68
2018-01-31T17:05:24.936Z,68.60
2018-01-31T17:07:52.689Z,68.55
2018-01-31T17:10:20.302Z,69.05
2018-01-31T17:12:47.944Z,68.97
2018-01-31T17:15:15.664Z,68.87
2018-01-31T17:17:43.255Z,68.48
2018-01-31T17:20:10.855Z,68.78
2018-01-31T17:22:38.465Z,68.47
2018-01-31T17:25:06.067Z,68.42
2018-01-31T17:27:33.705Z,68.43
2018-01-31T17:30:01.289Z,68.34
2018-01-31T17:32:29.157Z,67.60
2018-01-31T17:34:56.774Z,67.44
2018-01-31T17:37:24.381Z,68.18
2018-01-31T17:39:52.075Z,67.24
2018-01-31T17:42:19.684Z,67.14
2018-01-31T17:44:47.308Z,67.33
2018-01-31T17:47:14.950Z,66.83
2018-01-31T17:49:42.536Z,66.59
2018-01-31T17:52:10.147Z,66.90
2018-01-31T17:54:37.790Z,66.97
2018-01-31T17:57:05.387Z,66.36
2018-01-31T17:59:32.974Z,66.71
2018-01-31T18:02:05.482Z,66.39
2018-01-31T18:04:38.159Z,66.11
2018-01-31T18:07:06.404Z,66.27
2018-01-31T18:09:33.984Z,66.38
2018-01-31T18:12:01.900Z,65.88
2018-01-31T18:14:29.523Z,65.58
2018-01-31T18:16:57.179Z,65.44
2018-01-31T18:19:24.799Z,65.73
2018-01-31T18:21:52.418Z,66.58
2018-01-31T18:24:20.297Z,66.90
2018-01-31T18:26:48.004Z,65.92
2018-01-31T18:29:15.599Z,66.27
2018-01-31T18:31:43.211Z,66.23
2018-01-31T18:34:10.803Z,66.66
2018-01-31T18:36:38.410Z,66.39
2018-01-31T18:39:06.003Z,66.46
2018-01-31T18:41:33.830Z,66.14
2018-01-31T18:44:01.429Z,67.04
2018-01-31T18:46:29.204Z,66.05
2018-01-31T18:48:56.819Z,66.42
2018-01-31T18:51:24.424Z,65.71
2018-01-31T18:53:52.045Z,66.12
2018-01-31T18:56:19.646Z,65.94
2018-01-31T18:58:47.292Z,65.81
2018-01-31T19:01:14.936Z,65.86
2018-01-31T19:03:42.549Z,66.46
2018-01-31T19:06:10.195Z,65.95
2018-01-31T19:08:37.830Z,66.49
2018-01-31T19:11:05.565Z,66.97
2018-01-31T19:13:33.172Z,67.06
2018-01-31T19:16:01.242Z,67.74
2018-01-31T19:18:28.823Z,68.20
2018-01-31T19:20:56.420Z,68.38
2018-01-31T19:23:24.027Z,68.67
2018-01-31T19:25:51.623Z,68.31
2018-01-31T19:28:19.234Z,68.19
2018-01-31T19:30:46.832Z,68.49
2018-01-31T19:33:14.638Z,68.96
2018-01-31T19:35:42.252Z,69.55
2018-01-31T19:38:09.839Z,69.72
2018-01-31T19:40:37.465Z,69.72
2018-01-31T19:43:05.105Z,69.93
2018-01-31T19:45:32.741Z,71.22
2018-01-31T19:48:00.363Z,70.41
2018-01-31T19:50:28.661Z,71.45
2018-01-31T19:52:56.698Z,71.18
2018-01-31T19:55:24.532Z,72.00
2018-01-31T19:57:52.611Z,72.20
2018-01-31T20:00:20.520Z,71.28
2018-01-31T20:02:48.154Z,71.49
2018-01-31T20:05:15.765Z,71.39
2018-01-31T20:07:43.754Z,71.51
2018-01-31T20:10:11.374Z,72.40
2018-01-31T20:12:38.972Z,72.35
2018-01-31T20:15:06.827Z,72.06
2018-01-31T20:17:34.431Z,71.98
2018-01-31T20:20:02.087Z,72.07
2018-01-31T20:22:29.714Z,71.71
2018-01-31T20:24:57.566Z,71.80
2018-01-31T20:27:25.221Z,72.35
2018-01-31T20:29:52.823Z,72.42
2018-01-31T20:32:20.450Z,73.03
2018-01-31T20:34:48.109Z,72.76
2018-01-31T20:37:15.723Z,72.59
2018-01-31T20:39:43.316Z,72.98
2018-01-31T20:42:10.910Z,73.00
2018-01-31T20:44:38.527Z,73.59
2018-01-31T20:47:06.121Z,73.62
2018-01-31T20:49:33.814Z,73.17
2018-01-31T20:52:01.423Z,73.65
2018-01-31T20:54:29.023Z,73.37
2018-01-31T20:56:56.680Z,73.30
2018-01-31T20:59:24.290Z,73.16
2018-01-31T21:01:51.904Z,73.09
2018-01-31T21:04:19.491Z,73.54
2018-01-31T21:06:47.369Z,73.23
2018-01-31T21:09:15.013Z,72.58
2018-01-31T21:11:42.620Z,73.05
2018-01-31T21:14:10.251Z,72.44
2018-01-31T21:16:37.842Z,72.41
2018-01-31T21:19:05.488Z,72.41
2018-01-31T21:21:33.083Z,72.56
2018-01-31T21:24:00.701Z,72.58
2018-01-31T21:26:28.275Z,73.16
2018-01-31T21:28:56.088Z,73.45
2018-01-31T21:31:23.737Z,73.72
2018-01-31T21:33:51.370Z,74.37
2018-01-31T21:36:19.129Z,73.70
2018-01-31T21:38:46.733Z,74.04
2018-01-31T21:41:14.354Z,74.51
2018-01-31T21:43:41.946Z,75.08
2018-01-31T21:46:09.729Z,75.54
2018-01-31T21:48:37.340Z,75.47
2018-01-31T21:51:04.926Z,76.30
2018-01-31T21:53:32.564Z,75.48
2018-01-31T21:56:00.171Z,76.00
2018-01-31T21:58:28.027Z,76.41
2018-01-31T22:00:55.613Z,76.13
2018-01-31T22:03:23.220Z,76.08
2018-01-31T22:05:50.820Z,75.63
2018-01-31T22:08:18.412Z,76.14
2018-01-31T22:10:46.027Z,76.19
2018-01-31T22:13:13.630Z,76.13
2018-01-31T22:15:41.526Z,75.96
2018-01-31T22:18:09.119Z,75.89
2018-01-31T22:20:36.707Z,75.44
2018-01-31T22:23:04.315Z,75.97
2018-01-31T22:25:31.895Z,76.68
2018-01-31T22:27:59.546Z,76.63
2018-01-31T22:30:27.135Z,76.78
2018-01-31T22:32:54.999Z,77.14
2018-01-31T22:35:22.589Z,77.84
2018-01-31T22:37:50.166Z,78.19
2018-01-31T22:40:17.790Z,77.56
2018-01-31T22:42:45.378Z,77.65
2018-01-31T22:45:12.988Z,77.32
2018-01-31T22:47:40.572Z,77.00
2018-01-31T22:50:08.415Z,77.52
2018-01-31T22:52:36.000Z,77.21
2018-01-31T22:55:03.596Z,77.31
2018-01-31T22:57:31.242Z,77.37
2018-01-31T22:59:58.823Z,76.47
2018-01-31T23:02:26.428Z,76.18
2018-01-31T23:04:54.025Z,76.81
2018-01-31T23:07:21.645Z,76.53
2018-01-31T23:09:49.239Z,76.36
2018-01-31T23:12:22.498Z,75.50
2018-01-31T23:14:52.003Z,76.18
2018-01-31T23:17:25.560Z,75.97
2018-01-31T23:19:53.148Z,75.65
2018-01-31T23:22:20.929Z,75.29
2018-01-31T23:24:48.574Z,75.34
2018-01-31T23:27:16.175Z,74.69
2018-01-31T23:29:43.807Z,74.79
2018-01-31T23:32:11.416Z,75.45
2018-01-31T23:34:39.359Z,75.17
2018-01-31T23:37:06.953Z,75.86
2018-01-31T23:39:34.535Z,76.16
2018-01-31T23:42:02.214Z,76.53
2018-01-31T23:44:29.815Z,76.34
2018-01-31T23:46:57.436Z,76.58
2018-01-31T23:49:25.034Z,76.79
2018-01-31T23:51:52.878Z,76.89
2018-01-31T23:54:20.472Z,76.73
2018-01-31T23:56:48.089Z,76.07
2018-01-31T23:59:15.703Z,76.85
